• Join FlightAware (Why Join?)
  • Login
  • US Flag 
09:46AM EDT


 

Airport Tracker/Info


-or-


 

Live Flight TrackerFlight Track Log ✈ BSK8642 ✈ 05-May-2013 ✈ KJQF - KANB

Flight Track Log - Related Links

Times and Time Zones

All times are in EDT time to prevent confusion due to time zone crossing. See the BSK8642 flight status page for this flight to view local times or setup timezone preferences in your user account.

Time Position Orientation Groundspeed Altitude Reporting Facility
EDT Latitude Longitude Course Direction KTS MPH feet Rate Location/Type
05:57AM 35.4039 -80.7086 11° North 120 138 1,400  Level Atlanta Center
05:57AM 35.4183 -80.7053 11° North 140 161 2,200 1,860 Climbing Atlanta Center
05:58AM 35.4414 -80.7044 North 180 207 3,100 2,280 Climbing Atlanta Center
05:58AM 35.4731 -80.7211 337° Northwest 273 314 4,500 2,580 Climbing Atlanta Center
05:59AM 35.4844 -80.7589 290° West 306 352 5,500 2,040 Climbing Atlanta Center
06:04AM 35.2820 -81.2580 290° West 360 414 16,200 2,160 Climbing FlightAware
06:05AM 35.2420 -81.3210 232° Southwest 366 421 18,100 4,200 Climbing FlightAware
06:05AM 35.1930 -81.3990 232° Southwest 375 432 22,200 2,940 Climbing FlightAware
06:06AM 35.1320 -81.4950 232° Southwest 385 443 23,000 480 Climbing FlightAware
06:07AM 35.0920 -81.5590 233° Southwest 385 443 23,000 1,080 Level FlightAware
06:07AM 35.0490 -81.6270 232° Southwest 397 457 24,400 2,700 Climbing FlightAware
06:08AM 34.9950 -81.7120 232° Southwest 392 451 26,900 2,880 Climbing FlightAware
06:09AM 34.9542 -81.7762 232° Southwest 400 460 28,300 2,220 Climbing FlightAware ADS-B
06:09AM 34.9196 -81.8304 232° Southwest 407 468 29,200 2,040 Climbing FlightAware ADS-B
06:10AM 34.8842 -81.8858 232° Southwest 406 467 30,400 2,640 Climbing FlightAware ADS-B
06:10AM 34.8500 -81.9395 232° Southwest 397 457 31,900 2,580 Climbing FlightAware ADS-B
06:11AM 34.8160 -81.9927 232° Southwest 393 452 33,000 2,100 Climbing FlightAware ADS-B
06:11AM 34.7772 -82.0535 232° Southwest 393 452 34,200 1,920 Climbing FlightAware ADS-B
06:12AM 34.7372 -82.1156 232° Southwest 392 451 35,300 1,740 Climbing FlightAware ADS-B
06:13AM 34.7026 -82.1695 232° Southwest 393 452 36,200 1,680 Climbing FlightAware ADS-B
06:13AM 34.6668 -82.2251 232° Southwest 393 452 37,100 1,380 Climbing FlightAware ADS-B
06:14AM 34.6177 -82.3013 232° Southwest 398 458 38,000 720 Climbing FlightAware ADS-B
06:14AM 34.5830 -82.3550 232° Southwest 401 461 38,000  Level FlightAware ADS-B
06:15AM 34.5466 -82.4114 232° Southwest 402 463 38,000  Level FlightAware ADS-B
06:15AM 34.5112 -82.4663 232° Southwest 401 461 38,000  Level FlightAware ADS-B
06:16AM 34.4730 -82.5250 232° Southwest 401 461 38,000  Level FlightAware
06:16AM 34.4496 -82.5603 231° Southwest 401 461 38,000  Level FlightAware ADS-B
06:17AM 34.4156 -82.6127 232° Southwest 396 456 38,000  Level FlightAware ADS-B
06:17AM 34.3728 -82.6788 232° Southwest 395 455 38,000  Level FlightAware ADS-B
06:18AM 34.3382 -82.7318 232° Southwest 395 455 38,000  Level FlightAware ADS-B
06:18AM 34.3044 -82.7836 232° Southwest 395 455 38,000  Level FlightAware ADS-B
06:19AM 34.2688 -82.8378 232° Southwest 395 455 38,000  Level FlightAware ADS-B
06:19AM 34.2303 -82.8967 232° Southwest 396 456 38,000  Level FlightAware ADS-B
06:20AM 34.1939 -82.9521 232° Southwest 397 457 38,000  Level FlightAware ADS-B
06:21AM 34.1598 -83.0040 232° Southwest 396 456 38,000  Level FlightAware ADS-B
06:21AM 34.1249 -83.0571 232° Southwest 395 455 38,000  Level FlightAware ADS-B
06:22AM 34.0890 -83.1111 231° Southwest 395 455 38,000  Level FlightAware ADS-B
06:22AM 34.0439 -83.1793 231° Southwest 396 456 38,000  Level FlightAware ADS-B
06:23AM 33.9668 -83.2961 232° Southwest 397 457 38,000  Level FlightAware ADS-B
06:24AM 33.9496 -83.3294 238° Southwest 397 457 38,000  Level FlightAware ADS-B
06:24AM 33.9285 -83.3923 248° West 402 463 38,000  Level FlightAware ADS-B
06:25AM 33.9060 -83.4730 251° West 403 464 38,000  Level FlightAware
06:25AM 33.9027 -83.4830 248° West 404 465 38,000  Level FlightAware ADS-B
06:25AM 33.8820 -83.5570 251° West 403 464 38,000  Level FlightAware
06:26AM 33.8727 -83.5894 251° West 402 463 38,000  Level FlightAware ADS-B
06:26AM 33.8538 -83.6557 251° West 402 463 38,000  Level FlightAware ADS-B
06:27AM 33.8354 -83.7198 251° West 402 463 38,000  Level FlightAware ADS-B
06:28AM 33.8070 -83.8200 251° West 401 461 38,000  Level FlightAware
06:28AM 33.7978 -83.8507 250° West 401 461 38,000  Level FlightAware ADS-B
06:28AM 33.7792 -83.9154 251° West 401 461 38,000  Level FlightAware ADS-B
06:29AM 33.7608 -83.9791 251° West 400 460 38,000  Level FlightAware ADS-B
06:29AM 33.7422 -84.0448 251° West 398 458 38,000  Level FlightAware ADS-B
06:30AM 33.7245 -84.1086 252° West 396 456 38,000  Level FlightAware ADS-B
06:30AM 33.7060 -84.1720 251° West 393 452 38,000  Level FlightAware ADS-B
06:31AM 33.6868 -84.2366 250° West 392 451 38,000  Level FlightAware ADS-B
06:31AM 33.6685 -84.2982 250° West 391 450 38,000 -300 Level FlightAware ADS-B
06:32AM 33.6499 -84.3618 251° West 387 445 37,700 -1,320 Descending FlightAware ADS-B
06:32AM 33.6408 -84.3928 251° West 386 444 37,000 -2,580 Descending FlightAware ADS-B
06:32AM 33.6359 -84.4130 254° West 388 447 36,600 -2,760 Descending FlightAware ADS-B
06:33AM 33.6309 -84.4434 259° West 390 449 35,900 -3,120 Descending FlightAware ADS-B
06:33AM 33.6283 -84.4749 264° West 396 456 35,100 -3,420 Descending FlightAware ADS-B
06:33AM 33.6271 -84.5437 269° West 399 459 33,300 -3,060 Descending FlightAware ADS-B
06:34AM 33.6261 -84.6099 269° West 391 450 32,000 -2,580 Descending FlightAware ADS-B
06:34AM 33.6249 -84.6754 269° West 383 441 30,700 -2,460 Descending FlightAware ADS-B
06:35AM 33.6237 -84.7386 269° West 374 430 29,500 -2,400 Descending FlightAware ADS-B
06:35AM 33.6226 -84.8002 269° West 364 419 28,300 -2,340 Descending FlightAware ADS-B
06:36AM 33.6213 -84.8756 269° West 358 412 26,900 -2,220 Descending FlightAware ADS-B
06:37AM 33.6200 -84.9410 269° West 345 397 25,600 -2,760 Descending FlightAware
06:37AM 33.6190 -85.0260 269° West 356 410 23,200 -2,100 Descending FlightAware
06:38AM 33.6170 -85.1280 269° West 351 404 22,100 -720 Descending FlightAware
06:39AM 33.6170 -85.1940 270° West 351 404 22,100  Level FlightAware
06:40AM 33.6170 -85.2770 270° West 351 404 22,100  Level FlightAware
06:40AM 33.6170 -85.3430 270° West 351 404 22,100  Level FlightAware
06:41AM 33.6170 -85.4090 270° West 351 404 22,100  Level FlightAware
06:42AM 33.6170 -85.4760 270° West 351 404 22,100 -7,740 Level FlightAware
06:42AM 33.6094 -85.5628 270° West 325 374 12,600 -9,120 Descending Atlanta Center
06:43AM 33.6022 -85.6400 264° West 315 362 11,200 -2,100 Descending Atlanta Center
06:43AM 33.6061 -85.6675 280° West 319 367 10,500 -1,140 Descending Atlanta Center
06:44AM 33.6031 -85.7422 267° West 305 351 10,100 -720 Descending Atlanta Center
06:44AM 33.6047 -85.7647 275° West 309 356 9,800 -1,320 Descending Atlanta Center
06:45AM 33.5997 -85.8294 265° West 256 295 8,800 -1,320 Descending Atlanta Center
06:45AM 33.6014 -85.8469 277° West 278 320 8,500 -1,380 Descending Atlanta Center
06:46AM 33.5964 -85.9142 265° West 254 292 7,400 -1,440 Descending Atlanta Center
06:46AM 33.5981 -85.9342 276° West 266 306 7,100 -1,380 Descending Atlanta Center
06:47AM 33.5950 -86.0039 267° West 248 285 6,000 -1,320 Descending Atlanta Center
06:47AM 33.5969 -86.0139 283° West 254 292 5,800 -1,320 Descending Atlanta Center
06:48AM 33.5917 -86.0811 265° West 237 273 4,700 -1,440 Descending Atlanta Center
06:48AM 33.5933 -86.0936 279° West 249 287 4,400 -1,320 Descending Atlanta Center
06:49AM 33.5881 -86.1583 264° West 229 264 3,400 -1,140 Descending Atlanta Center
06:49AM 33.5839 -86.1658 236° Southwest 242 278 3,300 -240 Descending Atlanta Center
06:50AM 33.5397 -86.1797 195° South 186 214 3,200 -60 Descending Atlanta Center
06:51AM 33.4986 -86.1514 150° Southeast 166 191 3,200  Level Atlanta Center
06:52AM 33.4700 -86.1108 130° Southeast 167 192 3,300  Climbing Atlanta Center
06:53AM 33.4583 -86.0581 105° East 177 204 3,200  Descending Atlanta Center
06:54AM 33.4842 -86.0064 59° Northeast 169 194 3,300 -240 Climbing Atlanta Center
06:55AM 33.5078 -85.9622 57° Northeast 170 196 2,800 -660 Descending Atlanta Center
06:56AM 33.5336 -85.9228 52° Northeast 157 181 2,000 -420 Descending Atlanta Center
06:57AM 33.5422 -85.9081 55° Northeast 157 181 2,000  Level Atlanta Center